createdAt,value
2018-12-01T00:00:43.616Z,12.23
2018-12-01T00:03:12.766Z,11.17
2018-12-01T00:05:41.915Z,12.20
2018-12-01T00:08:11.066Z,5.47
2018-12-01T00:10:40.134Z,6.63
2018-12-01T00:13:09.247Z,6.13
2018-12-01T00:15:38.304Z,10.77
2018-12-01T00:18:07.897Z,8.53
2018-12-01T00:20:38.272Z,10.10
2018-12-01T00:23:08.520Z,8.03
2018-12-01T00:25:37.723Z,7.63
2018-12-01T00:28:06.912Z,8.30
2018-12-01T00:30:36.070Z,10.17
2018-12-01T00:33:05.270Z,4.57
2018-12-01T00:35:34.783Z,13.90
2018-12-01T00:38:03.971Z,4.80
2018-12-01T00:40:33.186Z,10.20
2018-12-01T00:43:02.490Z,9.70
2018-12-01T00:45:31.805Z,8.47
2018-12-01T00:48:00.890Z,7.90
2018-12-01T00:50:30.659Z,5.93
2018-12-01T00:52:59.692Z,7.23
2018-12-01T00:55:28.844Z,7.57
2018-12-01T00:57:58.018Z,7.20
2018-12-01T01:00:27.954Z,6.73
2018-12-01T01:02:59.207Z,4.70
2018-12-01T01:05:30.084Z,7.90
2018-12-01T01:08:01.311Z,10.17
2018-12-01T01:10:32.555Z,8.97
2018-12-01T01:13:01.628Z,7.70
2018-12-01T01:15:30.740Z,4.57
2018-12-01T01:17:59.866Z,9.83
2018-12-01T01:20:30.251Z,6.63
2018-12-01T01:22:59.451Z,5.07
2018-12-01T01:25:29.395Z,6.83
2018-12-01T01:27:58.504Z,9.97
2018-12-01T01:30:27.862Z,7.67
2018-12-01T01:33:07.746Z,5.80
2018-12-01T01:35:36.880Z,4.83
2018-12-01T01:38:06.120Z,9.90
2018-12-01T01:40:35.197Z,12.03
2018-12-01T01:43:04.316Z,5.53
2018-12-01T01:45:33.487Z,4.67
2018-12-01T01:48:02.612Z,6.23
2018-12-01T01:50:32.317Z,11.30
2018-12-01T01:53:01.490Z,8.07
2018-12-01T01:55:30.669Z,12.63
2018-12-01T01:57:59.809Z,5.37
2018-12-01T02:00:29.026Z,15.43
2018-12-01T02:02:58.089Z,13.00
2018-12-01T02:05:27.283Z,6.10
2018-12-01T02:07:56.398Z,14.57
2018-12-01T02:10:25.571Z,9.43
2018-12-01T02:12:54.867Z,8.13
2018-12-01T02:15:24.092Z,6.67
2018-12-01T02:17:53.263Z,4.43
2018-12-01T02:20:22.381Z,8.47
2018-12-01T02:22:51.806Z,10.07
2018-12-01T02:25:20.914Z,9.77
2018-12-01T02:27:50.033Z,8.13
2018-12-01T02:30:20.885Z,8.73
2018-12-01T02:32:50.304Z,7.83
2018-12-01T02:35:26.598Z,9.00
2018-12-01T02:37:55.776Z,8.40
2018-12-01T02:40:24.858Z,8.00
2018-12-01T02:42:54.020Z,6.90
2018-12-01T02:45:33.972Z,6.70
2018-12-01T02:48:03.200Z,6.67
2018-12-01T02:50:32.403Z,7.20
2018-12-01T02:53:02.831Z,11.97
2018-12-01T02:55:31.863Z,5.37
2018-12-01T02:58:01.039Z,4.53
2018-12-01T03:00:30.116Z,11.83
2018-12-01T03:02:59.310Z,7.00
2018-12-01T03:05:29.102Z,9.10
2018-12-01T03:07:58.242Z,3.20
2018-12-01T03:10:27.451Z,6.33
2018-12-01T03:12:56.715Z,9.03
2018-12-01T03:15:25.816Z,4.50
2018-12-01T03:17:54.986Z,4.20
2018-12-01T03:20:24.031Z,9.67
2018-12-01T03:22:53.181Z,7.17
2018-12-01T03:25:23.240Z,4.83
2018-12-01T03:27:53.261Z,4.57
2018-12-01T03:30:23.499Z,11.67
2018-12-01T03:32:53.524Z,3.87
2018-12-01T03:35:23.512Z,10.00
2018-12-01T03:37:52.844Z,8.47
2018-12-01T03:40:23.335Z,7.83
2018-12-01T03:42:53.668Z,4.03
2018-12-01T03:45:23.691Z,7.97
2018-12-01T03:47:52.965Z,12.23
2018-12-01T03:50:24.235Z,7.03
2018-12-01T03:52:57.268Z,9.37
2018-12-01T03:55:33.403Z,7.63
2018-12-01T03:58:03.407Z,4.70
2018-12-01T04:00:34.405Z,4.63
2018-12-01T04:03:10.478Z,11.83
2018-12-01T04:05:40.426Z,3.33
2018-12-01T04:08:09.485Z,3.97
2018-12-01T04:10:38.591Z,5.30
2018-12-01T04:13:07.801Z,2.70
2018-12-01T04:15:36.951Z,3.40
2018-12-01T04:18:06.224Z,2.83
2018-12-01T04:20:35.362Z,4.07
2018-12-01T04:23:04.673Z,3.13
2018-12-01T04:25:33.787Z,3.13
2018-12-01T04:28:02.986Z,5.10
2018-12-01T04:30:32.063Z,6.40
2018-12-01T04:33:01.171Z,4.67
2018-12-01T04:35:31.212Z,3.50
2018-12-01T04:38:01.089Z,7.73
2018-12-01T04:40:30.370Z,2.40
2018-12-01T04:42:59.518Z,5.53
2018-12-01T04:45:28.655Z,5.13
2018-12-01T04:47:57.975Z,1.57
2018-12-01T04:50:27.500Z,4.00
2018-12-01T04:52:56.688Z,8.73
2018-12-01T04:55:25.878Z,4.53
2018-12-01T04:57:54.924Z,3.70
2018-12-01T05:00:23.986Z,2.70
2018-12-01T05:02:53.063Z,3.47
2018-12-01T05:05:22.707Z,4.50
2018-12-01T05:07:51.924Z,3.03
2018-12-01T05:10:22.835Z,1.60
2018-12-01T05:12:52.079Z,6.40
2018-12-01T05:15:21.261Z,1.23
2018-12-01T05:17:50.372Z,5.13
2018-12-01T05:20:26.458Z,7.40
2018-12-01T05:22:55.560Z,0.40
2018-12-01T05:25:25.574Z,0.90
2018-12-01T05:27:54.696Z,2.77
2018-12-01T05:30:23.891Z,2.13
2018-12-01T05:32:53.014Z,3.20
2018-12-01T05:35:23.206Z,2.53
2018-12-01T05:37:52.392Z,1.37
2018-12-01T05:40:21.790Z,4.00
2018-12-01T05:42:50.808Z,1.03
2018-12-01T05:45:21.615Z,2.07
2018-12-01T05:47:50.953Z,0.60
2018-12-01T05:50:28.300Z,2.23
2018-12-01T05:52:57.934Z,0.43
2018-12-01T05:55:27.620Z,0.53
2018-12-01T05:57:57.153Z,0.30
2018-12-01T06:00:26.398Z,1.30
2018-12-01T06:02:55.401Z,0.20
2018-12-01T06:05:25.435Z,0.10
2018-12-01T06:07:54.560Z,0.13
2018-12-01T06:10:23.964Z,0.03
2018-12-01T06:12:54.058Z,0.10
2018-12-01T06:15:23.395Z,0.83
2018-12-01T06:17:52.452Z,0.07
2018-12-01T06:20:22.678Z,0.00
2018-12-01T06:22:51.859Z,0.73
2018-12-01T06:25:22.331Z,0.67
2018-12-01T06:27:51.396Z,0.13
2018-12-01T06:30:21.030Z,0.57
2018-12-01T06:32:51.297Z,0.20
2018-12-01T06:35:20.400Z,0.20
2018-12-01T06:37:49.581Z,0.73
2018-12-01T06:40:19.457Z,0.37
2018-12-01T06:42:48.681Z,1.60
2018-12-01T06:45:22.161Z,0.00
2018-12-01T06:47:51.234Z,0.30
2018-12-01T06:50:21.831Z,0.00
2018-12-01T06:52:51.521Z,0.30
2018-12-01T06:55:21.140Z,0.00
2018-12-01T06:57:51.164Z,0.00
2018-12-01T07:00:21.469Z,0.00
2018-12-01T07:02:50.847Z,0.00
2018-12-01T07:05:20.189Z,1.20
2018-12-01T07:07:49.237Z,0.10
2018-12-01T07:10:19.518Z,0.10
2018-12-01T07:12:53.891Z,0.00
2018-12-01T07:15:25.746Z,0.67
2018-12-01T07:17:54.842Z,0.07
2018-12-01T07:20:24.004Z,0.97
2018-12-01T07:22:53.098Z,0.00
2018-12-01T07:25:22.227Z,1.60
2018-12-01T07:27:51.323Z,0.73
2018-12-01T07:30:20.387Z,0.10
2018-12-01T07:32:49.414Z,0.10
2018-12-01T07:35:18.967Z,0.10
2018-12-01T07:37:48.083Z,0.20
2018-12-01T07:40:18.366Z,0.53
2018-12-01T07:42:47.421Z,0.30
2018-12-01T07:45:16.941Z,0.23
2018-12-01T07:47:46.001Z,0.10
2018-12-01T07:50:17.797Z,0.10
2018-12-01T07:52:53.958Z,0.00
2018-12-01T07:55:24.626Z,0.20
2018-12-01T07:57:55.279Z,0.27
2018-12-01T08:00:24.323Z,2.10
2018-12-01T08:02:53.396Z,0.87
2018-12-01T08:05:22.578Z,5.00
2018-12-01T08:07:51.728Z,0.83
2018-12-01T08:10:24.360Z,1.93
2018-12-01T08:12:57.150Z,0.20
2018-12-01T08:15:28.123Z,0.83
2018-12-01T08:17:57.303Z,0.00
2018-12-01T08:20:27.197Z,2.93
2018-12-01T08:22:56.299Z,3.53
2018-12-01T08:25:25.394Z,1.03
2018-12-01T08:27:56.849Z,3.40
2018-12-01T08:30:31.165Z,2.37
2018-12-01T08:33:00.218Z,4.93
2018-12-01T08:35:30.435Z,8.63
2018-12-01T08:37:59.636Z,10.93
2018-12-01T08:40:29.927Z,4.40
2018-12-01T08:42:59.124Z,10.00
2018-12-01T08:45:28.483Z,12.47
2018-12-01T08:47:57.474Z,6.40
2018-12-01T08:50:30.133Z,8.40
2018-12-01T08:52:59.426Z,12.27
2018-12-01T08:55:28.465Z,13.77
2018-12-01T08:57:58.045Z,8.17
2018-12-01T09:00:28.785Z,11.30
2018-12-01T09:03:00.587Z,15.60
2018-12-01T09:05:29.915Z,19.90
2018-12-01T09:07:59.131Z,14.93
2018-12-01T09:10:28.481Z,9.93
2018-12-01T09:13:01.546Z,11.93
2018-12-01T09:15:27.196Z,23.40
2018-12-01T09:17:56.334Z,18.47
2018-12-01T09:20:25.776Z,19.97
2018-12-01T09:22:55.571Z,11.27
2018-12-01T09:25:33.503Z,15.87
2018-12-01T09:28:04.183Z,17.63
2018-12-01T09:30:36.222Z,10.80
2018-12-01T09:33:05.688Z,13.00
2018-12-01T09:35:46.768Z,9.37
2018-12-01T09:38:15.962Z,12.03
2018-12-01T09:40:45.674Z,8.67
2018-12-01T09:43:16.302Z,10.83
2018-12-01T09:45:45.517Z,13.80
2018-12-01T09:48:14.963Z,13.60
2018-12-01T09:50:45.018Z,14.40
2018-12-01T09:53:14.129Z,6.83
2018-12-01T09:55:43.433Z,18.97
2018-12-01T09:58:12.614Z,11.27
2018-12-01T10:00:42.359Z,14.70
2018-12-01T10:03:12.426Z,16.90
2018-12-01T10:05:41.579Z,26.60
2018-12-01T10:08:12.684Z,15.17
2018-12-01T10:10:41.797Z,8.90
2018-12-01T10:13:12.156Z,21.27
2018-12-01T10:15:41.590Z,13.53
2018-12-01T10:18:11.079Z,17.27
2018-12-01T10:20:40.362Z,24.27
2018-12-01T10:23:16.964Z,18.20
2018-12-01T10:25:46.367Z,19.30
2018-12-01T10:28:16.826Z,13.00
2018-12-01T10:30:46.220Z,9.90
2018-12-01T10:33:15.525Z,11.80
2018-12-01T10:35:44.634Z,12.03
2018-12-01T10:38:15.539Z,17.57
2018-12-01T10:40:44.893Z,5.97
2018-12-01T10:43:15.066Z,6.60
2018-12-01T10:45:45.073Z,11.97
2018-12-01T10:48:14.447Z,6.63
2018-12-01T10:50:43.862Z,25.90
2018-12-01T10:53:13.894Z,14.47
2018-12-01T10:55:43.051Z,16.50
2018-12-01T10:58:19.993Z,9.40
2018-12-01T11:00:56.336Z,9.60
2018-12-01T11:03:33.141Z,10.13
2018-12-01T11:06:04.028Z,9.87
2018-12-01T11:08:33.433Z,8.60
2018-12-01T11:11:02.654Z,8.23
2018-12-01T11:13:32.821Z,5.70
2018-12-01T11:16:02.952Z,8.83
2018-12-01T11:18:32.754Z,7.23
2018-12-01T11:21:02.295Z,5.03
2018-12-01T11:23:31.667Z,4.67
2018-12-01T11:26:00.929Z,10.63
2018-12-01T11:28:30.369Z,12.53
2018-12-01T11:31:00.488Z,7.23
2018-12-01T11:33:30.051Z,9.00
2018-12-01T11:36:03.592Z,8.17
2018-12-01T11:38:35.564Z,9.10
2018-12-01T11:41:04.928Z,12.23
2018-12-01T11:43:34.162Z,9.70
2018-12-01T11:46:03.477Z,8.27
2018-12-01T11:48:40.436Z,16.20
2018-12-01T11:51:11.575Z,19.13
2018-12-01T11:53:43.306Z,14.33
2018-12-01T11:56:12.840Z,13.93
2018-12-01T11:58:42.118Z,11.33
2018-12-01T12:01:11.920Z,12.97
2018-12-01T12:03:41.193Z,8.77
2018-12-01T12:06:13.998Z,9.20
2018-12-01T12:08:43.306Z,10.93
2018-12-01T12:11:15.003Z,7.93
2018-12-01T12:13:44.913Z,11.93
2018-12-01T12:16:14.197Z,12.77
2018-12-01T12:18:43.811Z,3.50
2018-12-01T12:21:13.288Z,11.23
2018-12-01T12:23:42.798Z,9.47
2018-12-01T12:26:12.414Z,6.07
2018-12-01T12:28:41.724Z,9.33
2018-12-01T12:31:11.034Z,6.57
2018-12-01T12:33:40.202Z,12.47
2018-12-01T12:36:09.630Z,12.07
2018-12-01T12:38:41.886Z,7.57
2018-12-01T12:41:11.370Z,11.70
2018-12-01T12:43:41.531Z,15.43
2018-12-01T12:46:11.505Z,26.60
2018-12-01T12:48:40.715Z,21.20
2018-12-01T12:51:11.601Z,26.10
2018-12-01T12:53:43.145Z,18.53
2018-12-01T12:56:14.192Z,18.63
2018-12-01T12:58:45.195Z,21.37
2018-12-01T13:01:15.034Z,19.33
2018-12-01T13:03:44.123Z,21.33
2018-12-01T13:06:13.371Z,19.43
2018-12-01T13:08:42.600Z,17.00
2018-12-01T13:11:12.929Z,14.27
2018-12-01T13:13:43.916Z,17.97
2018-12-01T13:16:13.323Z,18.80
2018-12-01T13:18:43.519Z,20.03
2018-12-01T13:21:13.557Z,20.60
2018-12-01T13:23:42.654Z,16.63
2018-12-01T13:26:12.966Z,19.53
2018-12-01T13:28:42.622Z,26.00
2018-12-01T13:31:11.876Z,14.77
2018-12-01T13:33:41.296Z,18.90
2018-12-01T13:36:11.484Z,25.37
2018-12-01T13:38:41.584Z,21.00
2018-12-01T13:41:12.338Z,33.83
2018-12-01T13:43:41.921Z,32.37
2018-12-01T13:46:13.167Z,19.47
2018-12-01T13:48:42.351Z,25.57
2018-12-01T13:51:11.881Z,17.17
2018-12-01T13:53:41.234Z,17.93
2018-12-01T13:56:10.751Z,17.17
2018-12-01T13:58:40.055Z,22.43
2018-12-01T14:01:09.418Z,19.70
2018-12-01T14:03:42.620Z,14.87
2018-12-01T14:06:13.545Z,30.07
2018-12-01T14:08:43.821Z,24.93
2018-12-01T14:11:13.154Z,21.37
2018-12-01T14:13:42.456Z,17.83
2018-12-01T14:16:11.866Z,11.93
2018-12-01T14:18:41.232Z,16.93
2018-12-01T14:21:12.931Z,21.20
2018-12-01T14:23:42.487Z,30.47
2018-12-01T14:26:11.790Z,19.97
2018-12-01T14:28:41.243Z,14.73
2018-12-01T14:31:12.573Z,19.50
2018-12-01T14:33:42.562Z,23.77
2018-12-01T14:36:11.846Z,18.67
2018-12-01T14:38:43.203Z,20.10
2018-12-01T14:41:12.396Z,9.20
2018-12-01T14:43:41.613Z,17.13
2018-12-01T14:46:11.417Z,16.87
2018-12-01T14:48:41.462Z,17.53
2018-12-01T14:51:10.728Z,20.73
2018-12-01T14:56:43.834Z,22.40
2018-12-01T14:59:14.554Z,18.93
2018-12-01T15:01:44.386Z,13.50
2018-12-01T15:04:14.852Z,32.90
2018-12-01T15:06:45.115Z,25.67
2018-12-01T15:09:15.152Z,18.23
2018-12-01T15:11:44.860Z,15.57
2018-12-01T15:14:14.157Z,21.23
2018-12-01T15:16:43.497Z,23.17
2018-12-01T15:19:13.431Z,32.37
2018-12-01T15:21:42.823Z,23.17
2018-12-01T15:24:12.077Z,22.47
2018-12-01T15:26:41.461Z,29.47
2018-12-01T15:29:10.856Z,20.60
2018-12-01T15:31:40.173Z,22.53
2018-12-01T15:34:09.586Z,24.20
2018-12-01T15:36:43.500Z,25.57
2018-12-01T15:39:13.753Z,28.33
2018-12-01T15:41:44.056Z,24.90
2018-12-01T15:44:13.902Z,25.87
2018-12-01T15:46:44.579Z,22.73
2018-12-01T15:49:13.892Z,28.00
2018-12-01T15:51:45.060Z,20.97
2018-12-01T15:54:15.548Z,31.03
2018-12-01T15:56:44.958Z,28.63
2018-12-01T15:59:14.386Z,31.97
2018-12-01T16:01:44.137Z,26.60
2018-12-01T16:04:13.583Z,22.50
2018-12-01T16:06:43.025Z,33.10
2018-12-01T16:09:12.867Z,33.07
2018-12-01T16:11:42.501Z,29.40
2018-12-01T16:14:12.655Z,33.47
2018-12-01T16:16:43.257Z,35.17
2018-12-01T16:19:12.650Z,28.83
2018-12-01T16:21:42.335Z,32.23
2018-12-01T16:24:12.977Z,30.57
2018-12-01T16:26:42.218Z,25.53
2018-12-01T16:29:15.263Z,29.37
2018-12-01T16:31:44.816Z,31.90
2018-12-01T16:34:14.041Z,17.43
2018-12-01T16:36:43.279Z,27.57
2018-12-01T16:39:14.040Z,32.77
2018-12-01T16:41:43.555Z,38.90
2018-12-01T16:44:15.001Z,30.73
2018-12-01T16:46:45.378Z,33.83
2018-12-01T16:49:15.396Z,21.17
2018-12-01T16:51:44.725Z,35.33
2018-12-01T16:54:14.052Z,22.90
2018-12-01T16:56:43.804Z,30.40
2018-12-01T16:59:13.097Z,29.00
2018-12-01T17:01:43.814Z,26.63
2018-12-01T17:04:13.291Z,28.40
2018-12-01T17:06:42.641Z,29.57
2018-12-01T17:09:11.885Z,40.53
2018-12-01T17:11:41.339Z,28.97
2018-12-01T17:14:11.612Z,28.33
2018-12-01T17:16:40.928Z,29.10
2018-12-01T17:19:12.330Z,26.50
2018-12-01T17:21:41.443Z,23.90
2018-12-01T17:24:11.375Z,70.60
2018-12-01T17:26:40.558Z,32.70
2018-12-01T17:32:04.515Z,31.63
2018-12-01T17:34:34.526Z,27.43
2018-12-01T17:37:04.960Z,25.33
2018-12-01T17:39:34.245Z,26.70
2018-12-01T17:42:07.595Z,26.73
2018-12-01T17:44:39.971Z,30.87
2018-12-01T17:47:13.568Z,26.73
2018-12-01T17:49:43.995Z,23.63
2018-12-01T17:52:12.343Z,27.87
2018-12-01T17:54:41.439Z,22.27
2018-12-01T17:57:10.675Z,29.63
2018-12-01T17:59:39.862Z,36.20
2018-12-01T18:02:09.008Z,26.40
2018-12-01T18:04:38.130Z,27.70
2018-12-01T18:07:07.818Z,33.23
2018-12-01T18:09:38.172Z,37.20
2018-12-01T18:12:07.979Z,30.80
2018-12-01T18:14:37.159Z,36.07
2018-12-01T18:17:06.727Z,36.70
2018-12-01T18:19:37.392Z,29.70
2018-12-01T18:22:06.948Z,34.80
2018-12-01T18:24:36.209Z,26.83
2018-12-01T18:27:06.472Z,31.80
2018-12-01T18:29:35.723Z,23.13
2018-12-01T18:32:05.576Z,18.67
2018-12-01T18:34:35.210Z,33.63
2018-12-01T18:37:06.451Z,30.63
2018-12-01T18:39:35.647Z,32.63
2018-12-01T18:42:05.082Z,23.80
2018-12-01T18:44:34.431Z,21.27
2018-12-01T18:47:03.635Z,31.43
2018-12-01T18:49:32.783Z,27.77
2018-12-01T18:52:02.248Z,21.87
2018-12-01T18:54:31.609Z,27.60
2018-12-01T18:57:02.017Z,29.87
2018-12-01T18:59:30.250Z,28.67
2018-12-01T19:02:00.128Z,26.57
2018-12-01T19:04:31.255Z,21.47
2018-12-01T19:07:00.363Z,26.90
2018-12-01T19:09:29.570Z,20.20
2018-12-01T19:11:58.828Z,20.23
2018-12-01T19:14:29.228Z,27.70
2018-12-01T19:16:59.193Z,15.73
2018-12-01T19:19:30.203Z,42.50
2018-12-01T19:21:59.341Z,23.37
2018-12-01T19:24:28.779Z,15.77
2018-12-01T19:26:58.118Z,19.47
2018-12-01T19:29:29.066Z,18.77
2018-12-01T19:31:58.234Z,17.73
2018-12-01T19:34:27.520Z,18.73
2018-12-01T19:36:56.652Z,17.63
2018-12-01T19:39:25.844Z,13.77
2018-12-01T19:41:54.995Z,14.07
2018-12-01T19:44:24.380Z,13.47
2018-12-01T19:46:53.698Z,13.03
2018-12-01T19:49:22.995Z,13.57
2018-12-01T19:51:52.073Z,19.33
2018-12-01T19:54:21.377Z,14.53
2018-12-01T19:56:50.583Z,16.23
2018-12-01T19:59:19.700Z,14.20
2018-12-01T20:01:50.411Z,15.47
2018-12-01T20:04:19.612Z,17.27
2018-12-01T20:06:53.271Z,12.70
2018-12-01T20:09:22.447Z,14.63
2018-12-01T20:11:51.967Z,10.33
2018-12-01T20:14:22.381Z,16.50
2018-12-01T20:16:54.302Z,13.13
2018-12-01T20:19:23.594Z,12.33
2018-12-01T20:21:52.872Z,12.27
2018-12-01T20:24:23.944Z,17.90
2018-12-01T20:26:53.115Z,10.53
2018-12-01T20:29:22.472Z,18.83
2018-12-01T20:31:51.572Z,12.90
2018-12-01T20:34:20.860Z,11.23
2018-12-01T20:36:55.432Z,13.37
2018-12-01T20:39:26.316Z,9.93
2018-12-01T20:41:55.424Z,16.47
2018-12-01T20:44:24.516Z,12.13
2018-12-01T20:46:54.423Z,8.40
2018-12-01T20:49:25.059Z,15.27
2018-12-01T20:51:54.260Z,15.40
2018-12-01T20:54:35.739Z,10.97
2018-12-01T20:57:10.593Z,10.00
2018-12-01T20:59:39.763Z,9.83
2018-12-01T21:02:08.971Z,12.37
2018-12-01T21:04:38.238Z,10.47
2018-12-01T21:07:11.460Z,9.97
2018-12-01T21:09:40.865Z,8.50
2018-12-01T21:12:11.085Z,5.70
2018-12-01T21:14:42.009Z,3.93
2018-12-01T21:17:11.229Z,4.13
2018-12-01T21:19:40.839Z,2.83
2018-12-01T21:22:12.061Z,2.17
2018-12-01T21:24:43.573Z,2.83
2018-12-01T21:27:13.722Z,2.80
2018-12-01T21:29:44.077Z,4.17
2018-12-01T21:32:13.265Z,4.20
2018-12-01T21:34:43.170Z,3.23
2018-12-01T21:37:13.671Z,1.17
2018-12-01T21:39:44.359Z,1.60
2018-12-01T21:42:13.543Z,1.93
2018-12-01T21:44:42.733Z,1.90
2018-12-01T21:47:12.059Z,7.07
2018-12-01T21:49:41.260Z,3.63
2018-12-01T21:52:10.440Z,6.80
2018-12-01T21:54:40.477Z,10.00
2018-12-01T21:57:09.874Z,11.87
2018-12-01T21:59:39.248Z,4.50
2018-12-01T22:02:08.915Z,6.73
2018-12-01T22:04:38.127Z,7.77
2018-12-01T22:07:07.354Z,15.83
2018-12-01T22:09:36.745Z,5.33
2018-12-01T22:12:05.994Z,6.10
2018-12-01T22:14:35.833Z,13.07
2018-12-01T22:17:05.099Z,6.50
2018-12-01T22:19:34.370Z,8.60
2018-12-01T22:22:03.694Z,9.17
2018-12-01T22:24:33.436Z,9.60
2018-12-01T22:27:02.703Z,9.27
2018-12-01T22:29:32.358Z,13.40
2018-12-01T22:32:01.837Z,11.73
2018-12-01T22:34:32.328Z,14.03
2018-12-01T22:37:02.367Z,26.73
2018-12-01T22:39:31.640Z,13.93
2018-12-01T22:42:00.905Z,12.40
2018-12-01T22:44:31.984Z,14.77
2018-12-01T22:47:01.275Z,12.37
2018-12-01T22:49:30.689Z,25.70
2018-12-01T22:52:01.638Z,20.37
2018-12-01T22:54:31.132Z,18.50
2018-12-01T22:57:00.332Z,22.40
2018-12-01T22:59:30.703Z,20.90
2018-12-01T23:01:59.945Z,18.73
2018-12-01T23:04:29.150Z,20.73
2018-12-01T23:06:58.479Z,16.33
2018-12-01T23:09:30.618Z,23.57
2018-12-01T23:12:00.886Z,20.77
2018-12-01T23:14:30.245Z,21.33
2018-12-01T23:16:59.608Z,23.27
2018-12-01T23:19:28.839Z,14.83
2018-12-01T23:21:58.315Z,23.97
2018-12-01T23:24:28.704Z,20.23
2018-12-01T23:26:57.973Z,12.93
2018-12-01T23:29:27.178Z,9.57
2018-12-01T23:31:56.378Z,14.03
2018-12-01T23:34:25.678Z,9.23
2018-12-01T23:36:55.726Z,20.17
2018-12-01T23:39:25.523Z,11.67
2018-12-01T23:41:54.847Z,10.67
2018-12-01T23:44:29.621Z,11.23
2018-12-01T23:46:58.879Z,5.93
2018-12-01T23:49:28.121Z,14.23
2018-12-01T23:51:57.520Z,12.67
2018-12-01T23:54:26.609Z,12.80
2018-12-01T23:56:55.762Z,16.30
2018-12-01T23:59:25.015Z,13.73
